Time;durP1;ratioP1;P1;durP2;ratioP2;P2;SDS_P1;SDS_P2;PMS_P1;PMS_P2;Temp;Humidity;BMP_temperature;BMP_pressure;BME280_temperature;BME280_humidity;BME280_pressure;Samples;Min_cycle;Max_cycle;Signal;HPM_P1;HPM_P2
2023/11/30 00:00:28;;;;;;;28.88;18.45;;;1.10;99.90;;;;;;2011798;29;20040;-83
2023/11/30 00:01:29;;;;;;;27.77;17.60;;;1.10;99.90;;;;;;2000715;29;20040;-84
2023/11/30 00:02:32;;;;;;;26.98;17.63;;;1.10;99.90;;;;;;2002599;29;20026;-82
2023/11/30 00:03:32;;;;;;;27.65;17.85;;;1.10;99.90;;;;;;2003524;29;20054;-82
2023/11/30 00:04:33;;;;;;;26.80;17.63;;;1.10;99.90;;;;;;2002201;29;20451;-84
2023/11/30 00:05:33;;;;;;;28.20;18.00;;;1.10;99.90;;;;;;2002003;29;20041;-85
2023/11/30 00:06:38;;;;;;;29.30;17.67;;;1.10;99.90;;;;;;1993632;29;20034;-83
2023/11/30 00:07:38;;;;;;;27.15;17.63;;;1.10;99.90;;;;;;1999885;29;20511;-81
2023/11/30 00:08:39;;;;;;;28.38;17.33;;;1.10;99.90;;;;;;1998206;29;20034;-82
2023/11/30 00:09:39;;;;;;;27.23;17.95;;;1.10;99.90;;;;;;1998248;29;20454;-82
2023/11/30 00:10:40;;;;;;;29.60;17.73;;;1.10;99.90;;;;;;1997727;29;20038;-83
2023/11/30 00:11:40;;;;;;;26.50;17.55;;;1.10;99.90;;;;;;2002440;29;20065;-82
2023/11/30 00:12:41;;;;;;;25.73;17.10;;;1.10;99.90;;;;;;1997508;29;20037;-82
2023/11/30 00:13:41;;;;;;;27.08;17.42;;;1.10;99.90;;;;;;2000894;29;20037;-82
2023/11/30 00:14:42;;;;;;;28.90;18.30;;;1.10;99.90;;;;;;2006331;29;20036;-81
2023/11/30 00:15:42;;;;;;;27.80;17.42;;;1.10;99.90;;;;;;2003113;29;20500;-82
2023/11/30 00:16:43;;;;;;;27.08;18.05;;;1.10;99.90;;;;;;2012217;29;20041;-82
2023/11/30 00:17:43;;;;;;;27.80;17.55;;;1.20;99.90;;;;;;2013373;29;20436;-81
2023/11/30 00:18:44;;;;;;;26.52;17.10;;;1.20;99.90;;;;;;2011070;29;20121;-80
2023/11/30 00:19:44;;;;;;;27.60;17.35;;;1.20;99.90;;;;;;2015099;29;20029;-82
2023/11/30 00:20:45;;;;;;;26.08;17.52;;;1.20;99.90;;;;;;2012938;29;20025;-82
2023/11/30 00:21:46;;;;;;;26.77;17.15;;;1.20;99.90;;;;;;2007732;29;20037;-82
2023/11/30 00:22:47;;;;;;;25.65;16.40;;;1.20;99.90;;;;;;2007378;29;20415;-82
2023/11/30 00:23:47;;;;;;;24.48;15.52;;;1.20;99.90;;;;;;2007792;29;20028;-83
2023/11/30 00:24:48;;;;;;;24.40;16.27;;;1.20;99.90;;;;;;2005013;29;20546;-84
2023/11/30 00:25:48;;;;;;;26.27;15.23;;;1.20;99.90;;;;;;1996060;29;20459;-82
2023/11/30 00:26:49;;;;;;;25.65;16.60;;;1.20;99.90;;;;;;1996420;29;20030;-82
2023/11/30 00:27:49;;;;;;;23.38;15.57;;;1.20;99.90;;;;;;2004651;29;20039;-82
2023/11/30 00:28:50;;;;;;;24.10;16.45;;;1.20;99.90;;;;;;2000163;29;20044;-82
2023/11/30 00:29:51;;;;;;;24.42;15.50;;;1.20;99.90;;;;;;1996072;29;20037;-83
2023/11/30 00:30:52;;;;;;;26.17;16.27;;;1.20;99.90;;;;;;1999470;29;20066;-75
2023/11/30 00:31:53;;;;;;;25.95;16.67;;;1.30;99.90;;;;;;1991907;29;20026;-75
2023/11/30 00:32:55;;;;;;;27.13;16.85;;;1.30;99.90;;;;;;2002996;29;20040;-74
2023/11/30 00:33:55;;;;;;;23.95;16.33;;;1.30;99.90;;;;;;1999334;29;20464;-74
2023/11/30 00:34:56;;;;;;;27.25;16.13;;;1.30;99.90;;;;;;1984834;29;20031;-74
2023/11/30 00:35:56;;;;;;;25.45;15.88;;;1.20;99.90;;;;;;1998726;29;20600;-76
2023/11/30 00:36:57;;;;;;;28.63;16.27;;;1.30;99.90;;;;;;1998998;29;20032;-75
2023/11/30 00:37:57;;;;;;;22.98;15.07;;;1.30;99.90;;;;;;1991843;29;20045;-75
2023/11/30 00:38:58;;;;;;;24.30;15.05;;;1.30;99.90;;;;;;1998598;29;20033;-76
2023/11/30 00:39:58;;;;;;;22.52;15.18;;;1.30;99.90;;;;;;1998171;29;20053;-69
2023/11/30 00:40:59;;;;;;;24.75;16.00;;;1.30;99.90;;;;;;1993059;29;20034;-68
2023/11/30 00:41:59;;;;;;;23.95;15.80;;;1.30;99.90;;;;;;2007241;29;20049;-68
2023/11/30 00:43:00;;;;;;;25.75;15.77;;;1.20;99.90;;;;;;2006894;29;20038;-68
2023/11/30 00:44:01;;;;;;;24.33;15.23;;;1.30;99.90;;;;;;1998909;29;20025;-69
2023/11/30 00:45:01;;;;;;;25.33;15.85;;;1.30;99.90;;;;;;1996033;29;20041;-68
2023/11/30 00:46:02;;;;;;;25.42;15.80;;;1.30;99.90;;;;;;2007210;29;20037;-68
2023/11/30 00:47:02;;;;;;;23.95;15.45;;;1.30;99.90;;;;;;1999010;29;20403;-68
2023/11/30 00:48:03;;;;;;;24.98;15.93;;;1.30;99.90;;;;;;2000132;29;20109;-68
2023/11/30 00:49:04;;;;;;;26.23;15.30;;;1.30;99.90;;;;;;2006268;29;20025;-68
2023/11/30 00:50:05;;;;;;;25.85;15.90;;;1.40;99.90;;;;;;2005600;29;20527;-68
2023/11/30 00:51:09;;;;;;;23.75;15.38;;;1.40;99.90;;;;;;2008602;29;20505;-67
2023/11/30 00:52:11;;;;;;;23.98;15.45;;;1.40;99.90;;;;;;2007058;29;20505;-68
2023/11/30 00:53:12;;;;;;;24.15;16.10;;;1.40;99.90;;;;;;2006686;29;20017;-68
2023/11/30 00:54:12;;;;;;;22.60;15.48;;;1.40;99.90;;;;;;1997819;29;20193;-68
2023/11/30 00:55:13;;;;;;;23.73;15.00;;;1.40;99.90;;;;;;1996849;29;20034;-68
2023/11/30 00:56:13;;;;;;;21.80;14.73;;;1.40;99.90;;;;;;2007303;29;20026;-68
2023/11/30 00:57:14;;;;;;;25.02;16.75;;;1.40;99.90;;;;;;2008047;29;20133;-68
2023/11/30 00:58:14;;;;;;;25.15;16.38;;;1.40;99.90;;;;;;2006054;29;20497;-67
2023/11/30 00:59:15;;;;;;;23.65;16.27;;;1.40;99.90;;;;;;1997082;29;20034;-67
2023/11/30 01:00:16;;;;;;;22.77;14.93;;;1.30;99.90;;;;;;2000366;29;20045;-68
2023/11/30 01:01:16;;;;;;;24.23;15.48;;;1.30;99.90;;;;;;1999532;29;20048;-68
2023/11/30 01:02:16;;;;;;;25.33;16.35;;;1.30;99.90;;;;;;2000025;29;20131;-67
2023/11/30 01:03:17;;;;;;;24.45;15.65;;;1.30;99.90;;;;;;2008762;29;20035;-67
2023/11/30 01:04:17;;;;;;;23.05;15.73;;;1.40;99.90;;;;;;2007733;29;20025;-68
2023/11/30 01:05:18;;;;;;;25.88;16.38;;;1.40;99.90;;;;;;2005065;29;20017;-67
2023/11/30 01:06:19;;;;;;;24.42;16.30;;;1.40;99.90;;;;;;2005008;29;20126;-67
2023/11/30 01:07:19;;;;;;;25.58;16.42;;;1.40;99.90;;;;;;2004905;29;20113;-67
2023/11/30 01:08:20;;;;;;;25.27;16.88;;;1.40;99.90;;;;;;2011542;29;20025;-67
2023/11/30 01:09:20;;;;;;;28.65;20.58;;;1.40;99.90;;;;;;2000521;29;20397;-67
2023/11/30 01:10:21;;;;;;;24.77;16.83;;;1.40;99.90;;;;;;1997257;29;20446;-68
2023/11/30 01:11:21;;;;;;;24.85;15.88;;;1.40;99.90;;;;;;2004876;29;20499;-68
2023/11/30 01:12:22;;;;;;;24.10;16.13;;;1.30;99.90;;;;;;2008483;29;20026;-67
2023/11/30 01:13:22;;;;;;;23.58;15.57;;;1.30;99.90;;;;;;2000036;29;20037;-66
2023/11/30 01:14:23;;;;;;;23.80;16.00;;;1.30;99.90;;;;;;1997220;29;20050;-68
2023/11/30 01:15:24;;;;;;;23.00;16.27;;;1.30;99.90;;;;;;2008733;29;20240;-69
2023/11/30 01:16:24;;;;;;;23.23;16.38;;;1.30;99.90;;;;;;2000221;29;20033;-69
2023/11/30 01:17:25;;;;;;;24.35;16.40;;;1.30;99.90;;;;;;1996758;29;20208;-69
2023/11/30 01:18:25;;;;;;;23.73;16.10;;;1.30;99.90;;;;;;1996792;29;20087;-67
2023/11/30 01:19:26;;;;;;;22.55;16.02;;;1.30;99.90;;;;;;2004116;29;20061;-69
2023/11/30 01:20:27;;;;;;;22.70;15.57;;;1.30;99.90;;;;;;1992672;29;20034;-72
2023/11/30 01:21:27;;;;;;;22.17;15.73;;;1.30;99.90;;;;;;1996347;29;20038;-77
2023/11/30 01:22:28;;;;;;;21.80;14.30;;;1.20;99.90;;;;;;1999959;29;20029;-77
2023/11/30 01:23:28;;;;;;;21.02;14.38;;;1.20;99.90;;;;;;2000389;29;20044;-77
2023/11/30 01:24:29;;;;;;;19.98;13.93;;;1.20;99.90;;;;;;1993937;29;20508;-84
2023/11/30 01:25:29;;;;;;;19.27;13.30;;;1.20;99.90;;;;;;1994246;29;20582;-85
2023/11/30 01:26:31;;;;;;;20.25;13.35;;;1.20;99.90;;;;;;2005368;29;20642;-85
2023/11/30 01:27:32;;;;;;;17.80;12.60;;;1.20;99.90;;;;;;2001866;29;20033;-84
2023/11/30 01:28:32;;;;;;;21.10;12.63;;;1.20;99.90;;;;;;2001011;29;20033;-83
2023/11/30 01:29:33;;;;;;;17.80;12.60;;;1.20;99.90;;;;;;2000996;29;20033;-85
2023/11/30 01:30:33;;;;;;;17.60;12.68;;;1.20;99.90;;;;;;1994269;29;20406;-83
2023/11/30 01:31:34;;;;;;;19.67;13.07;;;1.20;99.90;;;;;;1997999;29;20041;-82
2023/11/30 01:32:35;;;;;;;19.05;12.80;;;1.20;99.90;;;;;;2004574;29;20033;-83
2023/11/30 01:33:36;;;;;;;19.27;12.82;;;1.20;99.90;;;;;;2008223;29;20116;-82
2023/11/30 01:34:38;;;;;;;17.77;12.50;;;1.20;99.90;;;;;;2000772;29;20039;-82
2023/11/30 01:35:38;;;;;;;17.48;12.75;;;1.30;99.90;;;;;;1998500;29;20339;-83
2023/11/30 01:36:39;;;;;;;18.02;12.25;;;1.20;99.90;;;;;;2008040;29;20033;-83
2023/11/30 01:37:39;;;;;;;16.13;11.68;;;1.30;99.90;;;;;;2008755;29;20036;-83
2023/11/30 01:38:40;;;;;;;16.38;11.73;;;1.20;99.90;;;;;;2007184;29;20029;-83
2023/11/30 01:39:40;;;;;;;15.77;11.02;;;1.30;99.90;;;;;;2007841;29;20116;-83
2023/11/30 01:40:41;;;;;;;17.73;12.25;;;1.20;99.90;;;;;;1999494;29;20190;-83
2023/11/30 01:41:42;;;;;;;17.08;11.80;;;1.20;99.90;;;;;;1999235;29;20034;-82
2023/11/30 01:42:42;;;;;;;17.20;12.02;;;1.20;99.90;;;;;;2000777;29;20033;-83
2023/11/30 01:43:43;;;;;;;15.93;11.88;;;1.20;99.90;;;;;;1997182;29;20021;-84
2023/11/30 01:44:44;;;;;;;17.77;12.32;;;1.30;99.90;;;;;;1997740;29;20061;-84
2023/11/30 01:45:44;;;;;;;18.20;12.32;;;1.20;99.90;;;;;;2001088;29;20033;-84
2023/11/30 01:46:45;;;;;;;18.88;13.27;;;1.20;99.90;;;;;;2002743;29;21176;-83
2023/11/30 01:47:46;;;;;;;20.35;13.65;;;1.30;99.90;;;;;;1998965;29;20065;-84
2023/11/30 01:48:46;;;;;;;18.95;13.10;;;1.30;99.90;;;;;;2009144;29;20057;-82
2023/11/30 01:49:47;;;;;;;19.63;13.50;;;1.20;99.90;;;;;;1999009;29;20995;-83
2023/11/30 01:50:48;;;;;;;17.27;11.75;;;1.30;99.90;;;;;;1997157;29;20033;-84
2023/11/30 01:51:49;;;;;;;16.95;12.43;;;1.30;99.90;;;;;;1997449;29;20108;-83
2023/11/30 01:52:50;;;;;;;18.80;12.73;;;1.30;99.90;;;;;;1999961;29;20092;-83
2023/11/30 01:53:52;;;;;;;18.63;12.40;;;1.20;99.90;;;;;;1999887;29;20355;-84
2023/11/30 01:54:53;;;;;;;20.35;13.18;;;1.20;99.90;;;;;;1990508;29;20034;-84
2023/11/30 01:55:54;;;;;;;17.45;12.65;;;1.10;99.90;;;;;;1993114;29;20113;-84
2023/11/30 01:56:55;;;;;;;18.88;12.48;;;1.20;99.90;;;;;;1998078;29;20408;-83
2023/11/30 01:57:56;;;;;;;17.88;12.55;;;1.20;99.90;;;;;;1999334;29;20057;-84
2023/11/30 01:58:57;;;;;;;18.23;12.65;;;1.10;99.90;;;;;;1982742;29;20035;-85
2023/11/30 01:59:58;;;;;;;18.00;12.38;;;1.20;99.90;;;;;;2000959;29;20085;-86
2023/11/30 02:00:59;;;;;;;17.95;12.85;;;1.20;99.90;;;;;;1992785;29;20030;-83
2023/11/30 02:02:00;;;;;;;18.63;12.48;;;1.20;99.90;;;;;;1997409;29;20037;-85
2023/11/30 02:03:01;;;;;;;18.70;12.48;;;1.20;99.90;;;;;;2001101;29;20350;-84
2023/11/30 02:04:13;;;;;;;17.55;12.70;;;1.20;99.90;;;;;;1997852;29;20039;-85
2023/11/30 02:05:14;;;;;;;18.00;12.45;;;1.10;99.90;;;;;;1999518;29;20129;-85
2023/11/30 02:06:16;;;;;;;18.98;13.30;;;1.10;99.90;;;;;;1999471;29;20069;-85
2023/11/30 02:07:16;;;;;;;18.73;12.73;;;1.10;99.90;;;;;;1999312;29;20033;-85
2023/11/30 02:08:17;;;;;;;18.55;12.65;;;1.10;99.90;;;;;;1991977;29;20042;-87
2023/11/30 02:09:19;;;;;;;19.10;13.10;;;1.10;99.90;;;;;;2001598;29;20377;-86
2023/11/30 02:10:22;;;;;;;19.20;13.02;;;1.10;99.90;;;;;;2008267;29;20033;-85
2023/11/30 02:11:23;;;;;;;19.70;13.32;;;1.10;99.90;;;;;;2005816;29;20264;-86
2023/11/30 02:12:23;;;;;;;19.83;13.65;;;1.10;99.90;;;;;;2001264;29;20041;-85
2023/11/30 02:13:25;;;;;;;20.30;13.40;;;1.10;99.90;;;;;;2000309;29;20021;-86
2023/11/30 02:14:26;;;;;;;20.20;13.60;;;1.10;99.90;;;;;;1997709;29;20400;-85
2023/11/30 02:15:26;;;;;;;20.05;13.60;;;1.10;99.90;;;;;;2001029;29;20085;-85
2023/11/30 02:16:27;;;;;;;19.88;13.50;;;1.10;99.90;;;;;;2000788;29;20060;-85
2023/11/30 02:17:27;;;;;;;20.60;13.82;;;1.00;99.90;;;;;;2000167;29;20034;-85
2023/11/30 02:18:29;;;;;;;22.13;14.32;;;1.00;99.90;;;;;;1989714;29;20030;-84
2023/11/30 02:19:30;;;;;;;19.95;13.43;;;1.10;99.90;;;;;;1993761;29;20070;-84
2023/11/30 02:20:31;;;;;;;21.17;14.20;;;1.10;99.90;;;;;;2008784;29;20088;-85
2023/11/30 02:21:31;;;;;;;19.60;13.77;;;1.10;99.90;;;;;;2005864;29;20056;-86
2023/11/30 02:22:32;;;;;;;20.50;14.20;;;1.10;99.90;;;;;;2009046;29;20501;-86
2023/11/30 02:23:32;;;;;;;21.80;14.15;;;1.10;99.90;;;;;;2009683;29;20097;-86
2023/11/30 02:24:33;;;;;;;22.88;14.70;;;1.00;99.90;;;;;;2010021;29;20081;-85
2023/11/30 02:25:33;;;;;;;22.50;14.48;;;1.10;99.90;;;;;;2009020;29;20057;-85
2023/11/30 02:26:34;;;;;;;20.75;14.25;;;1.00;99.90;;;;;;2008867;29;20039;-84
2023/11/30 02:27:34;;;;;;;20.15;14.27;;;1.00;99.90;;;;;;2009722;29;20032;-86
2023/11/30 02:28:35;;;;;;;23.83;15.10;;;1.00;99.90;;;;;;1998184;29;20030;-84
2023/11/30 02:29:35;;;;;;;22.80;15.52;;;1.00;99.90;;;;;;2000211;29;20033;-84
2023/11/30 02:30:36;;;;;;;24.75;16.00;;;1.00;99.90;;;;;;2004244;29;20544;-84
2023/11/30 02:31:37;;;;;;;23.95;15.23;;;1.00;99.90;;;;;;2005288;29;20093;-84
2023/11/30 02:32:38;;;;;;;25.67;16.70;;;1.00;99.90;;;;;;2004255;29;20108;-83
2023/11/30 02:33:38;;;;;;;23.38;15.88;;;1.00;99.90;;;;;;2007137;29;20612;-83
2023/11/30 02:34:39;;;;;;;25.00;15.93;;;1.00;99.90;;;;;;2000217;29;20037;-83
2023/11/30 02:35:39;;;;;;;23.88;15.32;;;1.00;99.90;;;;;;1997757;29;20040;-83
2023/11/30 02:36:40;;;;;;;21.33;14.88;;;1.00;99.90;;;;;;1990566;29;20582;-84
2023/11/30 02:37:40;;;;;;;22.98;15.73;;;1.00;99.90;;;;;;1998349;29;20525;-84
2023/11/30 02:38:41;;;;;;;21.42;14.38;;;1.00;99.90;;;;;;1997200;29;20127;-84
2023/11/30 02:39:41;;;;;;;21.75;14.60;;;1.00;99.90;;;;;;1997654;29;20520;-85
2023/11/30 02:40:42;;;;;;;22.58;15.40;;;0.90;99.90;;;;;;2006832;29;20030;-85
2023/11/30 02:41:42;;;;;;;21.85;14.40;;;0.90;99.90;;;;;;2009161;29;20029;-85
2023/11/30 02:42:43;;;;;;;22.10;14.55;;;0.90;99.90;;;;;;1992556;29;20022;-86
2023/11/30 02:43:44;;;;;;;21.95;14.63;;;0.90;99.90;;;;;;1987065;29;20433;-86
2023/11/30 02:44:45;;;;;;;23.02;13.48;;;0.90;99.90;;;;;;1989526;29;20029;-85
2023/11/30 02:45:46;;;;;;;21.08;13.98;;;0.90;99.90;;;;;;2004974;29;20600;-84
2023/11/30 02:46:46;;;;;;;21.77;14.55;;;0.90;99.90;;;;;;2007071;29;20473;-84
2023/11/30 02:47:47;;;;;;;19.60;13.57;;;0.90;99.90;;;;;;2006010;29;20032;-84
2023/11/30 02:48:47;;;;;;;21.58;14.60;;;0.90;99.90;;;;;;2008281;29;20142;-84
2023/11/30 02:49:48;;;;;;;19.67;13.18;;;0.90;99.90;;;;;;1996944;29;20101;-84
2023/11/30 02:50:48;;;;;;;21.42;14.10;;;0.90;99.90;;;;;;1997215;29;20512;-83
2023/11/30 02:51:49;;;;;;;23.23;14.18;;;0.90;99.90;;;;;;2001487;29;20037;-85
2023/11/30 02:52:50;;;;;;;20.33;13.95;;;1.00;99.90;;;;;;2000474;29;20504;-84
2023/11/30 02:53:51;;;;;;;19.65;13.25;;;1.00;99.90;;;;;;1998285;29;20033;-82
2023/11/30 02:54:51;;;;;;;20.75;13.68;;;1.00;99.90;;;;;;1998466;29;20040;-84
2023/11/30 02:55:52;;;;;;;21.15;12.85;;;1.00;99.90;;;;;;2009143;29;20052;-84
2023/11/30 02:56:52;;;;;;;18.88;12.63;;;0.90;99.90;;;;;;2003878;29;20041;-84
2023/11/30 02:57:53;;;;;;;19.55;12.45;;;1.00;99.90;;;;;;2001647;29;20038;-84
2023/11/30 02:58:53;;;;;;;18.92;11.77;;;0.90;99.90;;;;;;2001838;29;20037;-85
2023/11/30 02:59:54;;;;;;;19.55;12.20;;;0.90;99.90;;;;;;2008040;29;20040;-85
2023/11/30 03:00:54;;;;;;;16.98;11.27;;;0.90;99.90;;;;;;2009545;29;20048;-85
2023/11/30 03:01:55;;;;;;;17.90;11.43;;;0.90;99.90;;;;;;1994434;29;20045;-85
2023/11/30 03:02:55;;;;;;;18.05;11.65;;;0.90;99.90;;;;;;2009123;29;20036;-86
2023/11/30 03:03:56;;;;;;;19.08;11.15;;;0.90;99.90;;;;;;2012550;29;20017;-85
2023/11/30 03:04:56;;;;;;;16.90;10.93;;;0.90;99.90;;;;;;2007893;29;20037;-86
2023/11/30 03:05:57;;;;;;;19.88;11.80;;;0.90;99.90;;;;;;2008305;29;20100;-81
2023/11/30 03:06:58;;;;;;;15.75;10.65;;;0.90;99.90;;;;;;2013643;29;20029;-86
2023/11/30 03:07:58;;;;;;;16.35;10.40;;;0.90;99.90;;;;;;2016693;29;20040;-85
2023/11/30 03:08:59;;;;;;;15.73;10.60;;;0.90;99.90;;;;;;2017592;29;20032;-82
2023/11/30 03:09:59;;;;;;;18.25;10.98;;;0.90;99.90;;;;;;2003476;29;20038;-82
2023/11/30 03:11:00;;;;;;;16.85;10.80;;;0.80;99.90;;;;;;2003969;29;20061;-84
2023/11/30 03:12:01;;;;;;;17.33;11.32;;;0.80;99.90;;;;;;2004933;29;20129;-85
2023/11/30 03:13:01;;;;;;;16.92;11.05;;;0.80;99.90;;;;;;1999169;29;20024;-80
2023/11/30 03:14:02;;;;;;;15.95;10.27;;;0.80;99.90;;;;;;2004171;29;20521;-84
2023/11/30 03:15:03;;;;;;;16.60;10.02;;;0.70;99.90;;;;;;1997889;29;20045;-84
2023/11/30 03:16:04;;;;;;;13.35;9.02;;;0.70;99.90;;;;;;2000828;29;20129;-86
2023/11/30 03:17:04;;;;;;;14.05;9.43;;;0.70;99.90;;;;;;1997573;29;20033;-85
2023/11/30 03:18:05;;;;;;;11.60;7.97;;;0.60;99.90;;;;;;2000954;29;20022;-85
2023/11/30 03:19:05;;;;;;;13.23;9.35;;;0.60;99.90;;;;;;2008408;29;20082;-86
2023/11/30 03:20:07;;;;;;;16.23;9.55;;;0.60;99.90;;;;;;1997768;29;20102;-84
2023/11/30 03:21:17;;;;;;;15.00;9.98;;;0.60;99.90;;;;;;1997938;29;20543;-85
2023/11/30 03:22:18;;;;;;;14.27;10.13;;;0.50;99.90;;;;;;2008342;29;20228;-84
2023/11/30 03:23:18;;;;;;;14.25;9.57;;;0.50;99.90;;;;;;2006574;29;20021;-86
2023/11/30 03:24:20;;;;;;;13.10;9.07;;;0.40;99.90;;;;;;2000806;29;20037;-85
2023/11/30 03:25:20;;;;;;;13.65;9.27;;;0.40;99.90;;;;;;1999740;29;20065;-84
2023/11/30 03:26:21;;;;;;;14.15;9.48;;;0.40;99.90;;;;;;2006253;29;20833;-85
2023/11/30 03:27:22;;;;;;;14.95;9.60;;;0.40;99.90;;;;;;1997668;29;20042;-85
2023/11/30 03:28:22;;;;;;;14.65;9.63;;;0.40;99.90;;;;;;1990054;29;20054;-86
2023/11/30 03:29:23;;;;;;;13.82;9.07;;;0.30;99.90;;;;;;1992824;29;20030;-86
2023/11/30 03:30:24;;;;;;;12.90;8.90;;;0.30;99.90;;;;;;1997916;29;20033;-86
2023/11/30 03:31:25;;;;;;;12.38;8.52;;;0.30;99.90;;;;;;1995686;29;20046;-85
2023/11/30 03:32:25;;;;;;;17.27;10.10;;;0.30;99.90;;;;;;1990802;29;20037;-85
2023/11/30 03:33:26;;;;;;;16.90;11.10;;;0.30;99.90;;;;;;1990121;29;20031;-85
2023/11/30 03:34:26;;;;;;;17.52;10.70;;;0.30;99.90;;;;;;1996510;29;20026;-85
2023/11/30 03:35:27;;;;;;;15.18;9.77;;;0.30;99.90;;;;;;2000083;29;20064;-85
2023/11/30 03:36:27;;;;;;;17.10;10.98;;;0.30;99.90;;;;;;1999666;29;20489;-84
2023/11/30 03:37:29;;;;;;;18.55;11.07;;;0.30;99.90;;;;;;1990171;29;20492;-85
2023/11/30 03:38:30;;;;;;;15.75;10.60;;;0.30;99.90;;;;;;1993162;29;20039;-85
2023/11/30 03:39:30;;;;;;;17.33;10.30;;;0.40;99.90;;;;;;2000466;29;20213;-84
2023/11/30 03:40:31;;;;;;;14.73;10.07;;;0.30;99.90;;;;;;2008685;29;20579;-84
2023/11/30 03:41:32;;;;;;;16.05;10.05;;;0.40;99.90;;;;;;2000450;29;20036;-85
2023/11/30 03:42:32;;;;;;;17.58;10.18;;;0.40;99.90;;;;;;1997983;29;20207;-81
2023/11/30 03:43:33;;;;;;;15.77;10.32;;;0.40;99.90;;;;;;2000599;29;20117;-84
2023/11/30 03:44:33;;;;;;;16.48;9.98;;;0.40;99.90;;;;;;1997076;29;20159;-85
2023/11/30 03:45:34;;;;;;;14.85;10.10;;;0.40;99.90;;;;;;2002036;29;20034;-85
2023/11/30 03:46:35;;;;;;;12.90;9.18;;;0.40;99.90;;;;;;1992960;29;20033;-84
2023/11/30 03:47:36;;;;;;;15.18;9.85;;;0.40;99.90;;;;;;1997050;29;20117;-84
2023/11/30 03:48:36;;;;;;;15.73;8.93;;;0.40;99.90;;;;;;2000032;29;20038;-84
2023/11/30 03:49:37;;;;;;;17.13;10.32;;;0.40;99.90;;;;;;1996068;29;20026;-84
2023/11/30 03:50:37;;;;;;;15.60;10.93;;;0.40;99.90;;;;;;1996703;29;20042;-84
2023/11/30 03:51:38;;;;;;;19.45;11.18;;;0.40;99.90;;;;;;2007923;29;20057;-83
2023/11/30 03:52:38;;;;;;;19.38;12.00;;;0.40;99.90;;;;;;2004935;29;20044;-84
2023/11/30 03:53:39;;;;;;;16.30;10.70;;;0.40;99.90;;;;;;2007684;29;20026;-85
2023/11/30 03:54:39;;;;;;;17.70;11.68;;;0.40;99.90;;;;;;2008860;29;20029;-84
2023/11/30 03:55:40;;;;;;;21.27;12.32;;;0.40;99.90;;;;;;2006173;29;20041;-84
2023/11/30 03:56:41;;;;;;;17.15;11.35;;;0.40;99.90;;;;;;2009134;29;20086;-84
2023/11/30 03:57:41;;;;;;;27.65;14.35;;;0.40;99.90;;;;;;2009779;29;20029;-84
2023/11/30 03:58:42;;;;;;;18.15;11.95;;;0.40;99.90;;;;;;2007259;29;20451;-84
2023/11/30 03:59:42;;;;;;;14.88;9.93;;;0.40;99.90;;;;;;2005538;29;20783;-85
2023/11/30 04:00:43;;;;;;;17.13;9.75;;;0.40;99.90;;;;;;1990353;29;20058;-85
2023/11/30 04:01:44;;;;;;;16.50;10.77;;;0.40;99.90;;;;;;1987116;29;20080;-84
2023/11/30 04:02:44;;;;;;;17.75;12.18;;;0.40;99.90;;;;;;2000990;29;20547;-84
2023/11/30 04:03:45;;;;;;;18.00;11.52;;;0.40;99.90;;;;;;2005096;29;20053;-82
2023/11/30 04:04:47;;;;;;;18.15;12.18;;;0.40;99.90;;;;;;2007693;29;20091;-85
2023/11/30 04:05:47;;;;;;;16.52;11.70;;;0.40;99.90;;;;;;2006732;29;20105;-84
2023/11/30 04:06:48;;;;;;;18.55;12.27;;;0.40;99.90;;;;;;2002056;29;20048;-84
2023/11/30 04:07:48;;;;;;;18.42;11.95;;;0.40;99.90;;;;;;1999224;29;20026;-84
2023/11/30 04:08:52;;;;;;;14.07;10.13;;;0.40;99.90;;;;;;2003107;29;20508;-85
2023/11/30 04:09:53;;;;;;;15.07;9.85;;;0.40;99.90;;;;;;2008163;29;20030;-85
2023/11/30 04:10:53;;;;;;;13.82;9.63;;;0.40;99.90;;;;;;2000360;29;20153;-85
2023/11/30 04:11:54;;;;;;;13.05;9.40;;;0.40;99.90;;;;;;2002137;29;20251;-83
2023/11/30 04:12:54;;;;;;;13.10;9.55;;;0.40;99.90;;;;;;2003789;29;20041;-84
2023/11/30 04:14:04;;;;;;;13.43;9.88;;;0.40;99.90;;;;;;2006162;29;20030;-81
2023/11/30 04:15:05;;;;;;;13.30;9.70;;;0.40;99.90;;;;;;2005299;29;20053;-82
2023/11/30 04:16:06;;;;;;;13.23;10.00;;;0.40;99.90;;;;;;2002632;29;20065;-81
2023/11/30 04:17:07;;;;;;;14.50;10.50;;;0.40;99.90;;;;;;2006838;29;20099;-84
2023/11/30 04:18:08;;;;;;;15.13;11.15;;;0.40;99.90;;;;;;2002936;29;20204;-81
2023/11/30 04:19:09;;;;;;;19.00;13.38;;;0.40;99.90;;;;;;1998676;29;20054;-84
2023/11/30 04:20:10;;;;;;;18.92;13.27;;;0.40;99.90;;;;;;1995642;29;20030;-83
2023/11/30 04:21:11;;;;;;;16.38;12.15;;;0.40;99.90;;;;;;2008711;29;20033;-83
2023/11/30 04:22:11;;;;;;;18.02;12.45;;;0.40;99.90;;;;;;2011853;29;20090;-82
2023/11/30 04:23:12;;;;;;;18.00;13.00;;;0.50;99.90;;;;;;2013090;29;20041;-84
2023/11/30 04:24:14;;;;;;;17.50;12.80;;;0.50;99.90;;;;;;2006387;29;20037;-84
2023/11/30 04:25:15;;;;;;;18.52;13.30;;;0.50;99.90;;;;;;2006004;29;20060;-84
2023/11/30 04:26:15;;;;;;;17.73;12.80;;;0.50;99.90;;;;;;2004737;29;20037;-84
2023/11/30 04:27:16;;;;;;;17.17;12.90;;;0.50;99.90;;;;;;1998938;29;20099;-83
2023/11/30 04:28:16;;;;;;;17.45;12.48;;;0.40;99.90;;;;;;1999613;29;20037;-84
2023/11/30 04:29:17;;;;;;;18.35;13.10;;;0.40;99.90;;;;;;2008332;29;20047;-85
2023/11/30 04:30:18;;;;;;;16.55;11.50;;;0.40;99.90;;;;;;2012125;29;20118;-84
2023/11/30 04:31:18;;;;;;;14.13;11.00;;;0.40;99.90;;;;;;2006185;29;20565;-83
2023/11/30 04:32:19;;;;;;;22.23;13.88;;;0.40;99.90;;;;;;1989860;29;20045;-84
2023/11/30 04:33:19;;;;;;;89.65;42.17;;;0.40;99.90;;;;;;2001139;29;20038;-84
2023/11/30 04:34:20;;;;;;;26.98;16.13;;;0.40;99.90;;;;;;1999636;29;20077;-83
2023/11/30 04:35:20;;;;;;;19.63;14.02;;;0.40;99.90;;;;;;1999640;29;20057;-82
2023/11/30 04:36:22;;;;;;;17.83;13.05;;;0.40;99.90;;;;;;2008805;29;20041;-83
2023/11/30 04:37:23;;;;;;;22.70;14.23;;;0.30;99.90;;;;;;1997500;29;20455;-83
2023/11/30 04:38:23;;;;;;;20.15;13.95;;;0.30;99.90;;;;;;1999923;29;20041;-83
2023/11/30 04:39:25;;;;;;;18.75;13.73;;;0.30;99.90;;;;;;2001163;29;20046;-82
2023/11/30 04:40:27;;;;;;;18.52;13.40;;;0.30;99.90;;;;;;1999537;29;20048;-83
2023/11/30 04:41:27;;;;;;;18.70;13.10;;;0.30;99.90;;;;;;1999718;29;20778;-83
2023/11/30 04:42:28;;;;;;;17.95;13.05;;;0.30;99.90;;;;;;1991383;29;20026;-84
2023/11/30 04:43:28;;;;;;;18.17;13.05;;;0.30;99.90;;;;;;1999405;29;20046;-84
2023/11/30 04:44:29;;;;;;;19.00;13.27;;;0.30;99.90;;;;;;1999065;29;20158;-83
2023/11/30 04:45:30;;;;;;;18.38;12.88;;;0.30;99.90;;;;;;1998347;29;20117;-83
2023/11/30 04:46:31;;;;;;;21.05;14.77;;;0.30;99.90;;;;;;2000898;29;20029;-83
2023/11/30 04:47:31;;;;;;;23.52;16.27;;;0.30;99.90;;;;;;1999789;29;20045;-82
2023/11/30 04:48:32;;;;;;;25.05;16.42;;;0.30;99.90;;;;;;1998918;29;20050;-83
2023/11/30 04:49:32;;;;;;;21.38;14.88;;;0.30;99.90;;;;;;2003860;29;20389;-82
2023/11/30 04:50:33;;;;;;;23.80;15.90;;;0.30;99.90;;;;;;2005710;29;20082;-83
2023/11/30 04:51:35;;;;;;;31.83;18.58;;;0.30;99.90;;;;;;1998204;29;20595;-82
2023/11/30 04:52:36;;;;;;;31.05;19.33;;;0.30;99.90;;;;;;2001599;29;20048;-84
2023/11/30 04:53:36;;;;;;;33.67;19.55;;;0.30;99.90;;;;;;2001029;29;20090;-83
2023/11/30 04:54:37;;;;;;;30.50;18.05;;;0.30;99.90;;;;;;2001228;29;20030;-84
2023/11/30 04:55:38;;;;;;;28.58;17.98;;;0.30;99.90;;;;;;1997916;29;20473;-83
2023/11/30 04:56:38;;;;;;;22.95;15.73;;;0.20;99.90;;;;;;1997039;29;20071;-83
2023/11/30 04:57:39;;;;;;;23.13;16.38;;;0.30;99.90;;;;;;1990469;29;20037;-84
2023/11/30 04:58:39;;;;;;;27.67;18.02;;;0.20;99.90;;;;;;1997629;29;20025;-83
2023/11/30 04:59:40;;;;;;;32.35;19.15;;;0.20;99.90;;;;;;1997890;29;20128;-83
2023/11/30 05:00:41;;;;;;;28.67;18.67;;;0.20;99.90;;;;;;2008880;29;20140;-81
2023/11/30 05:01:42;;;;;;;33.08;20.95;;;0.10;99.90;;;;;;2000565;29;20037;-82
2023/11/30 05:02:53;;;;;;;32.42;20.15;;;0.20;99.90;;;;;;2001318;29;20192;-82
2023/11/30 05:03:55;;;;;;;26.98;18.05;;;0.10;99.90;;;;;;1999019;29;20033;-83
2023/11/30 05:04:56;;;;;;;28.17;18.20;;;0.00;99.90;;;;;;2007520;29;20030;-81
2023/11/30 05:05:56;;;;;;;29.27;18.98;;;0.10;99.90;;;;;;1993676;29;20284;-83
2023/11/30 05:06:57;;;;;;;36.38;23.02;;;0.00;99.90;;;;;;1997656;29;20036;-82
2023/11/30 05:07:57;;;;;;;31.08;20.48;;;0.00;99.90;;;;;;2005610;29;20029;-82
2023/11/30 05:08:58;;;;;;;30.60;19.13;;;-0.10;99.90;;;;;;2005606;29;20037;-85
2023/11/30 05:09:59;;;;;;;30.15;19.67;;;-0.10;99.90;;;;;;2010648;29;20520;-84
2023/11/30 05:10:59;;;;;;;27.92;19.27;;;-0.10;99.90;;;;;;2000918;29;20467;-84
2023/11/30 05:12:00;;;;;;;30.20;20.35;;;-0.10;99.90;;;;;;1999344;29;20090;-83
2023/11/30 05:13:00;;;;;;;34.70;23.02;;;-0.10;99.90;;;;;;1998368;29;20737;-83